Latest Weather Observations for Gympie

IDQ60901

Issued at 10:11 am EST Thursday 21 November 2019 (issued every 10 minutes, with the page automatically refreshed every 10 minutes)

About weather observations | Map of Brisbane area stations | Latest observations for Brisbane area | Other Formats
Station Details ID: 040093 Name: GYMPIE Lat: -26.18 Lon: 152.64 Height: 64.5 m
Data from the previous 72 hours. | See also: Recent months at Gympie
Date/Time
EST
Temp
°C
App
Temp
°C
Dew
Point
°C
Rel
Hum
%
Delta-T
°C
Wind Press
QNH
hPa
Press
MSL
hPa
Rain since
9am
mm
Dir  Spd
km/h
Gust
km/h
Spd
kts
Gust
kts
21/10:00am 28.9 29.6 16.1 46 7.9 NE 7 15 4 8 1018.4 1018.1 0.0
21/09:30am 27.3 28.0 15.7 49 7.1 NE 6 11 3 6 1018.7 1018.4 0.0
21/09:00am 26.5 27.0 15.5 50 6.7 ESE 7 17 4 9 1018.9 1018.6 0.0
21/08:30am 25.7 26.5 16.3 56 5.8 NNE 7 15 4 8 1019.0 1018.7 0.0
21/08:00am 25.4 26.0 16.8 59 5.3 ENE 9 17 5 9 1019.0 1018.7 0.0
21/07:30am 24.7 25.4 17.9 66 4.3 NE 11 22 6 12 1019.0 1018.7 0.0
21/07:00am 23.9 25.7 18.8 73 3.2 NE 7 13 4 7 1018.8 1018.5 0.0
21/06:30am 23.0 25.9 19.8 82 2.1 ENE 4 13 2 7 1018.6 1018.3 0.0
21/06:00am 20.6 24.2 19.8 95 0.5 CALM 0 0 0 0 1018.1 1017.8 0.0
21/05:30am 19.7 22.8 18.7 94 0.6 CALM 0 0 0 0 1017.8 1017.5 0.0
21/05:00am 20.0 23.2 18.8 93 0.8 CALM 0 0 0 0 1017.4 1017.1 0.0
21/04:30am 20.6 24.0 19.4 93 0.8 CALM 0 0 0 0 1017.0 1016.7 0.0
21/04:00am 21.3 24.4 19.6 90 1.1 ENE 2 4 1 2 1016.5 1016.2 0.0
21/03:30am 21.6 24.6 20.1 91 1.0 NE 4 7 2 4 1016.1 1015.8 0.0
21/03:00am 21.3 24.7 20.1 93 0.8 NNE 2 6 1 3 1015.9 1015.6 0.0
21/02:30am 21.4 24.7 19.9 91 1.0 NE 2 4 1 2 1015.8 1015.5 0.0
21/02:00am 21.6 25.2 19.7 89 1.2 CALM 0 2 0 1 1015.9 1015.6 0.0
21/01:30am 22.1 25.7 19.8 87 1.5 CALM 0 0 0 0 1015.8 1015.5 0.0
21/01:00am 22.4 25.6 19.8 85 1.7 E 2 4 1 2 1015.9 1015.6 0.0
21/12:30am 23.1 26.5 20.1 83 1.9 ENE 2 6 1 3 1015.9 1015.6 0.0
21/12:00am 23.4 26.3 19.8 80 2.3 ENE 4 6 2 3 1016.0 1015.7 0.0
 
Date/Time
EST
Temp
°C
App
Temp
°C
Dew
Point
°C
Rel
Hum
%
Delta-T
°C
Wind Press
QNH
hPa
Press
MSL
hPa
Rain since
9am
mm
Dir  Spd
km/h
Gust
km/h
Spd
kts
Gust
kts
20/11:30pm 23.8 26.7 19.9 79 2.5 NE 4 7 2 4 1016.1 1015.8 0.0
20/11:00pm 24.3 27.0 20.2 78 2.7 NNE 6 9 3 5 1016.1 1015.8 0.0
20/10:30pm 24.5 27.1 20.4 78 2.7 NNE 7 13 4 7 1016.1 1015.8 0.0
20/10:00pm 24.8 27.0 20.5 77 2.8 NNE 9 17 5 9 1015.9 1015.6 0.0
20/09:30pm 24.9 27.6 20.2 75 3.1 N 6 9 3 5 1015.5 1015.2 0.0
20/09:00pm 24.8 27.8 20.1 75 3.1 NNE 4 9 2 5 1015.1 1014.8 0.0
20/08:30pm 24.5 28.0 20.4 78 2.7 ENE 2 6 1 3 1014.6 1014.3 0.0
20/08:00pm 24.6 27.7 20.3 77 2.8 ENE 4 7 2 4 1014.1 1013.8 0.0
20/07:30pm 25.1 27.7 20.1 74 3.3 NE 6 9 3 5 1013.4 1013.1 0.0
20/07:00pm 25.7 28.8 20.3 72 3.5 ENE 4 7 2 4 1012.9 1012.6 0.0
20/06:30pm 26.2 28.9 20.3 70 3.9 ENE 6 13 3 7 1012.5 1012.2 0.0
20/06:00pm 27.0 28.9 20.6 68 4.2 ENE 11 22 6 12 1011.9 1011.6 0.0
20/05:30pm 28.0 30.2 20.3 63 5.1 NE 9 24 5 13 1011.2 1010.9 0.0
20/05:00pm 29.4 30.8 20.3 58 6.0 NE 13 24 7 13 1010.6 1010.3 0.0
20/04:30pm 30.5 31.8 20.1 53 6.9 NE 13 26 7 14 1010.2 1009.9 0.0
20/04:00pm 32.3 33.6 20.2 48 8.1 NE 13 22 7 12 1009.9 1009.6 0.0
20/03:30pm 33.6 35.1 19.7 44 9.2 NE 11 20 6 11 1009.7 1009.4 0.0
20/03:00pm 34.3 35.1 19.1 40 10.0 NE 13 22 7 12 1009.4 1009.1 0.0
20/02:30pm 36.0 35.2 14.1 27 13.5 E 11 19 6 10 1009.5 1009.2 0.0
20/02:00pm 36.5 37.2 13.3 25 14.2 SSE 2 9 1 5 1009.8 1009.5 0.0
20/01:30pm 36.1 35.7 12.3 24 14.3 NE 6 11 3 6 1010.2 1009.9 0.0
20/01:00pm 34.8 34.8 13.6 28 13.0 ENE 6 13 3 7 1010.6 1010.3 0.0
20/12:30pm 34.4 34.6 14.8 30 12.2 NE 7 15 4 8 1011.0 1010.7 0.0
20/12:00pm 32.7 32.7 15.2 34 10.9 NNE 9 17 5 9 1011.5 1011.2 0.0
20/11:30am 32.6 33.5 16.0 36 10.4 NW 6 17 3 9 1012.1 1011.8 0.0
20/11:00am 31.7 31.3 15.2 36 10.2 N 11 26 6 14 1012.6 1012.3 0.0
20/10:30am 30.4 31.4 16.8 44 8.6 NNW 7 19 4 10 1013.2 1012.9 0.0
20/10:00am 29.5 30.4 18.3 51 7.2 NNW 11 17 6 9 1013.8 1013.5 0.0
20/09:30am 28.9 30.0 18.9 54 6.5 NNE 11 20 6 11 1014.1 1013.8 0.0
20/09:00am 27.2 28.1 19.3 62 5.1 N 13 20 7 11 1014.3 1014.0 0.0
20/08:30am 26.2 26.9 19.6 67 4.3 N 15 20 8 11 1014.6 1014.3 0.0
20/08:00am 25.8 26.5 19.7 69 4.0 NNW 15 26 8 14 1014.8 1014.5 0.0
20/07:30am 24.7 26.6 20.6 78 2.7 N 11 19 6 10 1015.0 1014.7 0.0
20/07:00am 24.0 28.1 21.5 86 1.7 N 2 4 1 2 1015.0 1014.7 0.0
20/06:30am 22.2 26.1 20.3 89 1.2 CALM 0 0 0 0 1014.9 1014.6 0.0
20/06:00am 20.9 24.6 19.9 94 0.6 CALM 0 0 0 0 1014.7 1014.4 0.0
20/05:30am 20.1 23.5 19.4 96 0.4 CALM 0 0 0 0 1014.4 1014.1 0.0
20/05:00am 20.1 23.5 19.4 96 0.4 CALM 0 0 0 0 1014.3 1014.0 0.0
20/04:30am 19.7 22.9 18.9 95 0.5 CALM 0 0 0 0 1014.0 1013.7 0.0
20/04:00am 19.6 22.7 18.6 94 0.6 CALM 0 0 0 0 1013.6 1013.3 0.0
20/03:30am 20.0 22.9 19.0 94 0.6 N 2 4 1 2 1013.4 1013.1 0.0
20/03:00am 20.4 23.8 19.4 94 0.6 CALM 0 0 0 0 1013.4 1013.1 0.0
20/02:30am 20.9 24.0 19.6 92 0.8 N 2 4 1 2 1013.3 1013.0 0.0
20/02:00am 21.1 24.6 19.6 91 1.0 CALM 0 0 0 0 1013.4 1013.1 0.0
20/01:30am 21.4 25.1 19.9 91 1.0 CALM 0 0 0 0 1013.8 1013.5 0.0
20/01:00am 21.2 24.8 19.7 91 1.0 CALM 0 0 0 0 1013.7 1013.4 0.0
20/12:30am 21.6 25.2 19.7 89 1.2 CALM 0 0 0 0 1013.7 1013.4 0.0
20/12:00am 21.6 25.2 19.7 89 1.2 CALM 0 0 0 0 1014.0 1013.7 0.0
 
Date/Time
EST
Temp
°C
App
Temp
°C
Dew
Point
°C
Rel
Hum
%
Delta-T
°C
Wind Press
QNH
hPa
Press
MSL
hPa
Rain since
9am
mm
Dir  Spd
km/h
Gust
km/h
Spd
kts
Gust
kts
19/11:30pm 21.9 24.8 19.8 88 1.3 NNW 4 6 2 3 1014.3 1014.0 0.0
19/11:00pm 22.4 25.3 19.9 86 1.6 N 4 6 2 3 1014.4 1014.1 0.0
19/10:30pm 22.6 25.5 19.9 85 1.7 N 4 6 2 3 1014.5 1014.2 0.0
19/10:00pm 22.3 25.8 19.5 84 1.8 CALM 0 0 0 0 1014.7 1014.4 0.0
19/09:30pm 22.9 25.7 19.7 82 2.1 NNE 4 7 2 4 1014.5 1014.2 0.0
19/09:00pm 22.9 25.7 19.7 82 2.1 NNE 4 6 2 3 1014.4 1014.1 0.0
19/08:30pm 23.0 26.5 19.6 81 2.2 CALM 0 0 0 0 1014.1 1013.8 0.0
19/08:00pm 23.4 26.1 19.5 79 2.5 NE 4 7 2 4 1013.8 1013.5 0.0
19/07:30pm 23.9 26.1 19.2 75 3.0 ENE 6 11 3 6 1013.5 1013.2 0.0
19/07:00pm 24.6 27.0 18.8 70 3.7 ENE 4 9 2 5 1013.2 1012.9 0.0
19/06:30pm 25.4 27.8 18.8 67 4.2 NE 4 9 2 5 1012.8 1012.5 0.0
19/06:00pm 26.3 28.4 18.9 63 4.8 NE 6 15 3 8 1012.3 1012.0 0.0
19/05:30pm 27.4 28.4 18.7 59 5.6 ENE 11 20 6 11 1011.8 1011.5 0.0
19/05:00pm 28.8 30.2 18.6 54 6.6 NE 9 19 5 10 1011.3 1011.0 0.0
19/04:30pm 29.7 30.3 18.5 51 7.2 NE 13 26 7 14 1010.8 1010.5 0.0
19/04:00pm 31.2 31.9 17.9 45 8.6 NE 11 24 6 13 1010.6 1010.3 0.0
19/03:30pm 31.6 32.2 18.6 46 8.4 ENE 13 24 7 13 1010.5 1010.2 0.0
19/03:00pm 31.7 31.6 17.9 43 8.9 E 15 28 8 15 1010.7 1010.4 0.0
19/02:30pm 32.6 32.3 16.4 37 10.2 E 13 24 7 13 1011.0 1010.7 0.0
19/02:00pm 32.6 32.2 14.2 32 11.3 N 9 19 5 10 1011.4 1011.1 0.0
19/01:30pm 32.7 32.9 14.3 32 11.3 NNW 6 11 3 6 1011.9 1011.6 0.0
19/01:00pm 32.1 31.6 12.8 30 11.5 NE 7 15 4 8 1012.5 1012.2 0.0
19/12:30pm 31.6 31.4 12.9 32 11.2 W 6 9 3 5 1013.1 1012.8 0.0
19/12:00pm 30.9 31.4 14.1 36 10.2 N 4 11 2 6 1013.8 1013.5 0.0
19/11:30am 29.8 30.0 14.7 39 9.2 NE 7 11 4 6 1014.5 1014.2 0.0
19/11:00am 28.4 28.4 14.3 42 8.5 NE 7 15 4 8 1015.0 1014.7 0.0
19/10:30am 27.9 29.8 16.8 50 6.9 NE 2 9 1 5 1015.7 1015.4 0.0
19/10:00am 27.0 28.5 16.6 53 6.5 NNE 4 11 2 6 1016.2 1015.9 0.0
19/09:30am 26.0 27.1 16.5 55 5.9 SSE 6 9 3 5 1016.5 1016.2 0.0
19/09:00am 24.6 25.8 16.8 62 4.8 WSW 6 9 3 5 1016.9 1016.6 0.0
19/08:30am 24.2 25.8 15.9 59 5.0 NW 2 6 1 3 1017.0 1016.7 0.0
19/08:00am 23.6 26.2 17.6 69 3.7 CALM 0 4 0 2 1016.9 1016.6 0.0
19/07:30am 22.5 25.1 17.6 74 3.0 CALM 0 0 0 0 1017.0 1016.7 0.0
19/07:00am 21.1 23.6 17.3 79 2.3 CALM 0 0 0 0 1017.1 1016.8 0.0
19/06:30am 19.9 22.5 17.5 86 1.5 CALM 0 2 0 1 1016.9 1016.6 0.0
19/06:00am 19.1 21.5 17.1 88 1.2 CALM 0 0 0 0 1016.8 1016.5 0.0
19/05:30am 18.4 20.8 16.9 91 0.9 CALM 0 0 0 0 1016.6 1016.3 0.0
19/05:00am 18.3 20.6 16.8 91 0.9 CALM 0 0 0 0 1016.2 1015.9 0.0
19/04:30am 18.1 20.3 16.6 91 0.9 CALM 0 0 0 0 1016.0 1015.7 0.0
19/04:00am 18.0 20.4 16.9 93 0.7 CALM 0 0 0 0 1015.7 1015.4 0.0
19/03:30am 17.7 20.0 16.7 94 0.6 CALM 0 0 0 0 1015.5 1015.2 0.0
19/03:00am 17.4 19.6 16.6 95 0.5 CALM 0 0 0 0 1015.5 1015.2 0.0
19/02:30am 16.9 18.9 16.1 95 0.5 CALM 0 0 0 0 1015.6 1015.3 0.0
19/02:00am 16.8 18.9 16.2 96 0.4 CALM 0 0 0 0 1015.7 1015.4 0.0
19/01:30am 16.4 18.2 15.4 94 0.6 CALM 0 0 0 0 1015.8 1015.5 0.0
19/01:00am 16.6 18.5 15.8 95 0.5 CALM 0 0 0 0 1016.0 1015.7 0.0
19/12:30am 16.6 18.4 15.5 93 0.6 CALM 0 0 0 0 1016.1 1015.8 0.0
19/12:00am 16.6 18.4 15.6 94 0.6 CALM 0 0 0 0 1016.5 1016.2 0.0
 
Date/Time
EST
Temp
°C
App
Temp
°C
Dew
Point
°C
Rel
Hum
%
Delta-T
°C
Wind Press
QNH
hPa
Press
MSL
hPa
Rain since
9am
mm
Dir  Spd
km/h
Gust
km/h
Spd
kts
Gust
kts
18/11:30pm 17.0 18.9 15.7 92 0.8 CALM 0 0 0 0 1016.9 1016.6 0.0
18/11:00pm 17.4 19.1 16.1 92 0.8 NNW 2 4 1 2 1017.3 1017.0 0.0
18/10:30pm 18.2 20.4 16.4 89 1.1 CALM 0 0 0 0 1017.5 1017.2 0.0
18/10:00pm 18.2 20.3 16.2 88 1.2 CALM 0 2 0 1 1017.7 1017.4 0.0
18/09:30pm 18.7 20.9 16.5 87 1.3 CALM 0 0 0 0 1017.8 1017.5 0.0
18/09:00pm 18.8 20.8 16.0 84 1.7 CALM 0 0 0 0 1017.6 1017.3 0.0
18/08:30pm 19.5 20.9 16.3 82 1.9 SE 4 6 2 3 1017.6 1017.3 0.0
18/08:00pm 19.8 21.5 16.3 80 2.1 SE 2 6 1 3 1017.7 1017.4 0.0
18/07:30pm 20.5 21.8 16.1 76 2.6 SE 4 7 2 4 1017.5 1017.2 0.0
18/07:00pm 21.3 22.3 16.3 73 3.0 SE 6 15 3 8 1017.3 1017.0 0.0
18/06:30pm 21.7 22.5 16.4 72 3.2 ESE 7 11 4 6 1016.9 1016.6 0.0
18/06:00pm 22.5 22.5 16.3 68 3.8 E 11 19 6 10 1016.8 1016.5 0.0
18/05:30pm 23.6 23.5 16.1 62 4.6 E 11 20 6 11 1016.3 1016.0 0.0
18/05:00pm 24.0 23.5 16.0 61 4.9 E 13 19 7 10 1015.9 1015.6 0.0
18/04:30pm 25.2 25.0 15.8 56 5.7 E 11 19 6 10 1015.5 1015.2 0.0
18/04:00pm 25.6 25.2 16.2 56 5.8 E 13 28 7 15 1015.4 1015.1 0.0
18/03:30pm 25.2 23.9 15.8 56 5.7 E 17 24 9 13 1015.3 1015.0 0.0
18/03:00pm 25.5 25.1 16.1 56 5.8 ESE 13 20 7 11 1015.4 1015.1 0.0
18/02:30pm 26.3 26.5 15.7 52 6.5 ESE 9 19 5 10 1015.4 1015.1 0.0
18/02:00pm 27.0 26.4 15.7 50 6.9 SSE 13 26 7 14 1015.5 1015.2 0.0
18/01:30pm 26.4 26.4 16.3 53 6.2 SE 11 19 6 10 1015.9 1015.6 0.0
18/01:00pm 26.1 25.4 15.5 52 6.4 ESE 13 28 7 15 1016.3 1016.0 0.0
18/12:30pm 26.5 25.8 15.5 50 6.7 SE 13 20 7 11 1016.6 1016.3 0.0
18/12:00pm 27.1 26.7 16.1 51 6.8 SSE 13 28 7 15 1016.8 1016.5 0.0
18/11:30am 25.5 24.5 15.5 54 6.1 SE 15 28 8 15 1017.2 1016.9 0.0
18/11:00am 25.1 23.9 15.1 53 6.0 SE 15 28 8 15 1017.5 1017.2 0.0
18/10:30am 24.3 23.6 15.5 58 5.3 SE 13 22 7 12 1017.7 1017.4 0.0

Latest Capital City Observations: Canberra | Sydney | Melbourne | Brisbane | Adelaide | Perth | Hobart | Darwin

Other formats

Comma delimited format used in spreadsheet applications
http://www.bom.gov.au/fwo/IDQ60901/IDQ60901.94566.axf

JavaScript Object Notation format (JSON) in row-major order
http://www.bom.gov.au/fwo/IDQ60901/IDQ60901.94566.json

Data quality

Most of these data are generated automatically and are frequently updated. Quality checks on data are not normally performed. It is possible for incorrect values to appear. Refer to information at About Latest Weather Observations and please check the disclaimer before using these data.